createdAt,value
2022-09-02T00:00:50.506Z,22.40
2022-09-02T00:03:17.502Z,22.40
2022-09-02T00:05:44.501Z,22.40
2022-09-02T00:08:12.037Z,22.40
2022-09-02T00:10:40.608Z,22.40
2022-09-02T00:13:08.714Z,22.50
2022-09-02T00:15:35.654Z,22.50
2022-09-02T00:18:03.211Z,22.50
2022-09-02T00:20:30.861Z,22.40
2022-09-02T00:22:57.652Z,22.50
2022-09-02T00:25:24.527Z,22.50
2022-09-02T00:27:51.305Z,22.40
2022-09-02T00:30:18.445Z,22.40
2022-09-02T00:32:45.275Z,22.40
2022-09-02T00:35:12.607Z,22.40
2022-09-02T00:37:39.425Z,22.40
2022-09-02T00:40:07.211Z,22.40
2022-09-02T00:42:34.596Z,22.40
2022-09-02T00:45:02.668Z,22.40
2022-09-02T00:47:31.175Z,22.40
2022-09-02T00:49:58.653Z,22.40
2022-09-02T00:52:31.941Z,22.40
2022-09-02T00:55:00.744Z,22.40
2022-09-02T00:57:30.751Z,22.30
2022-09-02T01:00:08.755Z,22.40
2022-09-02T01:02:37.445Z,22.40
2022-09-02T01:05:06.524Z,22.30
2022-09-02T01:07:34.867Z,22.30
2022-09-02T01:10:02.433Z,22.30
2022-09-02T01:12:32.364Z,22.30
2022-09-02T01:14:59.337Z,22.30
2022-09-02T01:17:26.702Z,22.30
2022-09-02T01:19:57.192Z,22.30
2022-09-02T01:22:25.800Z,22.30
2022-09-02T01:24:53.121Z,22.30
2022-09-02T01:27:21.760Z,22.30
2022-09-02T01:29:52.813Z,22.20
2022-09-02T01:32:19.665Z,22.20
2022-09-02T01:34:46.745Z,22.20
2022-09-02T01:37:13.625Z,22.20
2022-09-02T01:39:40.586Z,22.20
2022-09-02T01:42:07.785Z,22.20
2022-09-02T01:44:44.177Z,22.20
2022-09-02T01:47:15.779Z,22.20
2022-09-02T01:49:49.402Z,22.20
2022-09-02T01:52:17.063Z,22.10
2022-09-02T01:54:45.366Z,22.20
2022-09-02T01:57:13.076Z,22.20
2022-09-02T01:59:39.947Z,22.10
2022-09-02T02:02:07.490Z,22.10
2022-09-02T02:04:34.378Z,22.10
2022-09-02T02:07:04.069Z,22.00
2022-09-02T02:09:31.199Z,22.00
2022-09-02T02:11:58.271Z,22.00
2022-09-02T02:14:28.097Z,22.00
2022-09-02T02:16:54.963Z,22.00
2022-09-02T02:19:21.814Z,22.00
2022-09-02T02:21:48.863Z,21.90
2022-09-02T02:24:15.830Z,21.90
2022-09-02T02:26:42.686Z,21.90
2022-09-02T02:29:10.785Z,21.90
2022-09-02T02:31:38.919Z,21.90
2022-09-02T02:34:10.006Z,21.90
2022-09-02T02:36:37.823Z,21.90
2022-09-02T02:39:05.847Z,21.90
2022-09-02T02:41:33.327Z,21.90
2022-09-02T02:44:00.708Z,21.80
2022-09-02T02:46:31.139Z,21.80
2022-09-02T02:49:01.807Z,21.80
2022-09-02T02:51:28.732Z,21.90
2022-09-02T02:53:58.876Z,21.90
2022-09-02T02:56:27.669Z,21.80
2022-09-02T02:58:54.634Z,21.80
2022-09-02T03:01:21.530Z,21.80
2022-09-02T03:03:48.624Z,21.90
2022-09-02T03:06:16.522Z,21.90
2022-09-02T03:08:49.611Z,21.90
2022-09-02T03:11:22.455Z,21.90
2022-09-02T03:13:52.416Z,21.90
2022-09-02T03:16:19.985Z,21.90
2022-09-02T03:18:48.143Z,21.80
2022-09-02T03:21:16.131Z,21.80
2022-09-02T03:23:45.159Z,21.70
2022-09-02T03:26:14.262Z,21.70
2022-09-02T03:28:45.633Z,21.60
2022-09-02T03:31:20.179Z,21.60
2022-09-02T03:33:47.395Z,21.50
2022-09-02T03:36:21.726Z,21.40
2022-09-02T03:38:49.657Z,21.40
2022-09-02T03:41:16.725Z,21.40
2022-09-02T03:43:46.044Z,21.30
2022-09-02T03:46:14.706Z,21.30
2022-09-02T03:48:41.796Z,21.30
2022-09-02T03:51:11.803Z,21.20
2022-09-02T03:53:39.313Z,21.20
2022-09-02T03:56:07.526Z,21.20
2022-09-02T03:58:36.362Z,21.20
2022-09-02T04:01:03.992Z,21.30
2022-09-02T04:03:30.890Z,21.30
2022-09-02T04:05:58.949Z,21.30
2022-09-02T04:08:28.033Z,21.20
2022-09-02T04:10:58.636Z,21.20
2022-09-02T04:13:26.388Z,21.20
2022-09-02T04:15:53.257Z,21.20
2022-09-02T04:18:22.604Z,21.20
2022-09-02T04:20:51.378Z,21.20
2022-09-02T04:23:19.591Z,21.10
2022-09-02T04:25:47.489Z,21.10
2022-09-02T04:28:16.550Z,21.10
2022-09-02T04:30:43.583Z,21.10
2022-09-02T04:33:12.149Z,21.00
2022-09-02T04:35:43.363Z,20.90
2022-09-02T04:38:10.733Z,20.80
2022-09-02T04:40:41.867Z,20.60
2022-09-02T04:43:08.963Z,20.50
2022-09-02T04:45:36.231Z,20.50
2022-09-02T04:48:03.622Z,20.40
2022-09-02T04:50:31.239Z,20.40
2022-09-02T04:52:58.674Z,20.40
2022-09-02T04:55:26.421Z,20.40
2022-09-02T04:57:53.908Z,20.60
2022-09-02T05:00:21.924Z,20.70
2022-09-02T05:02:49.247Z,20.80
2022-09-02T05:05:16.406Z,20.80
2022-09-02T05:07:43.199Z,20.90
2022-09-02T05:10:10.544Z,20.80
2022-09-02T05:12:41.926Z,20.80
2022-09-02T05:15:11.575Z,20.80
2022-09-02T05:17:39.311Z,20.90
2022-09-02T05:20:07.949Z,20.80
2022-09-02T05:22:36.699Z,20.90
2022-09-02T05:25:07.545Z,20.90
2022-09-02T05:27:34.990Z,21.00
2022-09-02T05:30:02.458Z,21.00
2022-09-02T05:32:36.909Z,21.00
2022-09-02T05:35:05.098Z,21.00
2022-09-02T05:37:34.291Z,21.00
2022-09-02T05:40:01.725Z,20.90
2022-09-02T05:42:29.786Z,20.90
2022-09-02T05:44:57.278Z,20.90
2022-09-02T05:47:25.555Z,21.00
2022-09-02T05:49:53.327Z,21.00
2022-09-02T05:52:22.371Z,21.00
2022-09-02T05:54:52.937Z,21.00
2022-09-02T05:57:21.735Z,21.00
2022-09-02T05:59:57.062Z,21.10
2022-09-02T06:02:29.593Z,21.20
2022-09-02T06:04:56.801Z,21.20
2022-09-02T06:07:26.346Z,21.20
2022-09-02T06:09:55.334Z,21.20
2022-09-02T06:12:26.235Z,21.30
2022-09-02T06:14:54.191Z,21.30
2022-09-02T06:17:22.561Z,21.30
2022-09-02T06:19:52.511Z,21.40
2022-09-02T06:22:21.684Z,21.40
2022-09-02T06:24:48.676Z,21.50
2022-09-02T06:27:20.800Z,21.60
2022-09-02T06:29:51.259Z,21.70
2022-09-02T06:32:20.840Z,21.80
2022-09-02T06:34:50.067Z,21.90
2022-09-02T06:37:20.035Z,22.00
2022-09-02T06:39:48.344Z,22.00
2022-09-02T06:42:21.447Z,22.10
2022-09-02T06:45:03.922Z,22.10
2022-09-02T06:47:31.840Z,22.10
2022-09-02T06:50:00.132Z,22.10
2022-09-02T06:52:27.635Z,22.10
2022-09-02T06:54:55.396Z,22.10
2022-09-02T06:57:22.466Z,22.20
2022-09-02T07:00:01.844Z,22.20
2022-09-02T07:02:32.273Z,22.30
2022-09-02T07:05:15.579Z,22.30
2022-09-02T07:07:48.126Z,22.20
2022-09-02T07:10:15.837Z,22.20
2022-09-02T07:12:47.785Z,22.20
2022-09-02T07:15:17.023Z,22.20
2022-09-02T07:17:45.704Z,22.30
2022-09-02T07:20:18.776Z,22.30
2022-09-02T07:22:57.006Z,22.40
2022-09-02T07:25:26.105Z,22.50
2022-09-02T07:27:54.691Z,22.50
2022-09-02T07:30:22.619Z,22.60
2022-09-02T07:32:56.732Z,22.60
2022-09-02T07:35:25.898Z,22.60
2022-09-02T07:37:52.897Z,22.70
2022-09-02T07:40:21.360Z,22.70
2022-09-02T07:42:48.388Z,22.80
2022-09-02T07:45:15.266Z,22.90
2022-09-02T07:47:44.622Z,23.00
2022-09-02T07:50:16.973Z,23.20
2022-09-02T07:52:51.068Z,23.30
2022-09-02T07:55:18.341Z,23.50
2022-09-02T07:57:47.386Z,23.70
2022-09-02T08:00:16.523Z,23.80
2022-09-02T08:02:46.056Z,23.90
2022-09-02T08:05:17.998Z,23.80
2022-09-02T08:07:44.850Z,23.60
2022-09-02T08:10:13.070Z,23.60
2022-09-02T08:12:41.612Z,23.60
2022-09-02T08:15:09.150Z,23.60
2022-09-02T08:17:36.314Z,23.70
2022-09-02T08:20:03.999Z,23.80
2022-09-02T08:22:35.572Z,23.90
2022-09-02T08:25:02.836Z,24.00
2022-09-02T08:27:30.268Z,24.10
2022-09-02T08:29:57.416Z,24.10
2022-09-02T08:32:29.369Z,24.20
2022-09-02T08:34:58.408Z,24.30
2022-09-02T08:37:27.688Z,24.30
2022-09-02T08:39:54.521Z,24.30
2022-09-02T08:42:23.408Z,24.30
2022-09-02T08:44:54.687Z,24.40
2022-09-02T08:47:26.732Z,24.50
2022-09-02T08:49:56.203Z,24.60
2022-09-02T08:52:28.746Z,24.70
2022-09-02T08:54:56.459Z,24.90
2022-09-02T08:57:27.252Z,25.00
2022-09-02T08:59:59.250Z,25.10
2022-09-02T09:02:47.645Z,25.10
2022-09-02T09:05:52.236Z,25.20
2022-09-02T09:08:43.339Z,25.40
2022-09-02T09:11:16.425Z,25.60
2022-09-02T09:13:48.647Z,25.80
2022-09-02T09:16:17.205Z,26.00
2022-09-02T09:19:08.959Z,26.00
2022-09-02T09:21:36.340Z,26.20
2022-09-02T09:24:08.158Z,26.40
2022-09-02T09:26:42.567Z,26.70
2022-09-02T09:29:25.335Z,26.60
2022-09-02T09:32:01.138Z,26.70
2022-09-02T09:34:57.969Z,26.80
2022-09-02T09:37:41.289Z,27.00
2022-09-02T09:40:22.223Z,27.00
2022-09-02T09:43:16.738Z,27.00
2022-09-02T09:45:56.831Z,27.00
2022-09-02T09:48:32.173Z,27.00
2022-09-02T09:51:03.583Z,26.90
2022-09-02T09:53:34.164Z,27.00
2022-09-02T09:56:11.152Z,27.10
2022-09-02T09:59:04.590Z,27.30
2022-09-02T10:01:36.618Z,27.70
2022-09-02T10:04:42.990Z,28.00
2022-09-02T10:07:51.566Z,28.20
2022-09-02T10:10:25.564Z,28.30
2022-09-02T10:12:58.698Z,28.50
2022-09-02T10:15:45.422Z,28.60
2022-09-02T10:18:49.181Z,28.50
2022-09-02T10:21:33.865Z,28.20
2022-09-02T10:27:16.109Z,27.90
2022-09-02T10:30:07.021Z,27.80
2022-09-02T10:32:47.139Z,28.00
2022-09-02T10:35:34.261Z,27.90
2022-09-02T10:38:34.357Z,27.90
2022-09-02T10:47:40.933Z,27.90
2022-09-02T10:50:26.227Z,28.00
2022-09-02T10:53:09.684Z,27.80
2022-09-02T10:55:52.424Z,27.90
2022-09-02T10:58:22.500Z,28.00
2022-09-02T11:00:57.486Z,28.10
2022-09-02T11:03:44.112Z,28.00
2022-09-02T11:06:31.659Z,27.80
2022-09-02T11:09:20.312Z,27.90
2022-09-02T11:15:04.923Z,28.20
2022-09-02T11:17:49.965Z,28.20
2022-09-02T11:20:31.481Z,28.30
2022-09-02T11:23:19.125Z,28.40
2022-09-02T11:26:08.401Z,28.50
2022-09-02T11:28:54.375Z,28.50
2022-09-02T14:23:26.426Z,30.00
2022-09-02T14:26:37.379Z,30.20
2022-09-02T15:11:14.585Z,30.40
2022-09-02T15:13:42.373Z,30.00
2022-09-02T15:16:09.506Z,29.70
2022-09-02T15:18:36.668Z,29.30
2022-09-02T15:21:05.170Z,29.00
2022-09-02T15:23:34.992Z,28.90
2022-09-02T15:26:07.555Z,28.80
2022-09-02T15:28:37.783Z,28.50
2022-09-02T15:31:08.839Z,28.40
2022-09-02T15:33:39.307Z,28.40
2022-09-02T15:36:15.861Z,28.30
2022-09-02T15:38:48.429Z,28.10
2022-09-02T15:41:27.221Z,28.10
2022-09-02T15:43:57.086Z,28.00
2022-09-02T15:46:27.005Z,27.90
2022-09-02T15:48:59.049Z,27.80
2022-09-02T15:51:29.206Z,27.90
2022-09-02T15:54:01.367Z,27.90
2022-09-02T15:56:35.126Z,28.40
2022-09-02T15:59:03.992Z,29.40
2022-09-02T16:01:33.909Z,30.50
2022-09-02T16:04:05.321Z,31.30
2022-09-02T16:06:33.512Z,31.70
2022-09-02T16:09:00.893Z,32.10
2022-09-02T16:11:32.466Z,32.00
2022-09-02T16:14:02.257Z,31.40
2022-09-02T16:16:30.747Z,30.70
2022-09-02T16:18:58.032Z,30.10
2022-09-02T16:21:25.842Z,29.60
2022-09-02T16:23:55.091Z,29.10
2022-09-02T16:26:44.705Z,28.70
2022-09-02T16:29:18.389Z,28.40
2022-09-02T16:32:01.883Z,28.20
2022-09-02T16:34:33.813Z,27.90
2022-09-02T16:37:00.806Z,27.70
2022-09-02T16:39:27.700Z,27.50
2022-09-02T16:42:04.150Z,27.40
2022-09-02T16:44:34.386Z,27.30
2022-09-02T16:47:01.682Z,27.20
2022-09-02T16:49:28.658Z,27.10
2022-09-02T16:51:58.190Z,27.00
2022-09-02T16:54:31.702Z,27.00
2022-09-02T16:57:05.591Z,26.90
2022-09-02T16:59:32.601Z,26.80
2022-09-02T17:02:00.908Z,26.70
2022-09-02T17:04:27.905Z,26.70
2022-09-02T17:06:57.248Z,26.60
2022-09-02T17:09:24.135Z,26.50
2022-09-02T17:11:53.772Z,26.40
2022-09-02T17:14:23.184Z,26.40
2022-09-02T17:16:50.763Z,26.30
2022-09-02T17:19:21.974Z,26.20
2022-09-02T17:21:53.102Z,26.20
2022-09-02T17:24:26.353Z,26.10
2022-09-02T17:26:56.825Z,26.00
2022-09-02T17:29:48.624Z,26.00
2022-09-02T17:32:13.651Z,25.90
2022-09-02T17:34:40.461Z,25.80
2022-09-02T17:37:08.169Z,25.70
2022-09-02T17:39:37.797Z,25.70
2022-09-02T17:42:06.406Z,25.70
2022-09-02T17:44:35.797Z,25.60
2022-09-02T17:47:05.354Z,25.50
2022-09-02T17:49:32.605Z,25.40
2022-09-02T17:52:00.169Z,25.30
2022-09-02T17:54:28.056Z,25.20
2022-09-02T17:57:13.768Z,25.10
2022-09-02T18:00:00.655Z,25.10
2022-09-02T18:02:40.700Z,24.90
2022-09-02T18:05:22.551Z,24.90
2022-09-02T18:08:01.962Z,24.80
2022-09-02T18:10:37.641Z,24.70
2022-09-02T18:13:06.654Z,24.70
2022-09-02T18:15:45.452Z,24.70
2022-09-02T18:18:17.668Z,24.70
2022-09-02T18:20:48.562Z,24.60
2022-09-02T18:23:25.744Z,24.60
2022-09-02T18:25:59.789Z,24.60
2022-09-02T18:28:27.160Z,24.50
2022-09-02T18:31:13.324Z,24.50
2022-09-02T18:33:44.039Z,24.40
2022-09-02T18:36:34.140Z,24.30
2022-09-02T18:39:07.776Z,24.20
2022-09-02T18:41:39.706Z,24.20
2022-09-02T18:44:29.684Z,24.10
2022-09-02T18:46:59.968Z,24.10
2022-09-02T18:49:31.372Z,24.10
2022-09-02T18:52:00.113Z,24.10
2022-09-02T18:54:51.222Z,24.10
2022-09-02T18:57:19.628Z,24.00
2022-09-02T19:00:00.760Z,23.90
2022-09-02T19:02:46.386Z,23.90
2022-09-02T19:05:19.015Z,23.90
2022-09-02T19:08:04.910Z,23.90
2022-09-02T19:10:32.854Z,23.80
2022-09-02T19:13:01.331Z,23.80
2022-09-02T19:15:28.299Z,23.80
2022-09-02T19:17:55.233Z,23.70
2022-09-02T19:20:23.141Z,23.70
2022-09-02T19:22:51.681Z,23.70
2022-09-02T19:25:23.533Z,23.80
2022-09-02T19:27:51.372Z,23.80
2022-09-02T19:30:19.271Z,23.80
2022-09-02T19:32:48.121Z,23.70
2022-09-02T19:35:19.120Z,23.60
2022-09-02T19:37:47.752Z,23.60
2022-09-02T19:40:19.362Z,23.60
2022-09-02T19:42:46.558Z,23.60
2022-09-02T19:45:16.600Z,23.60
2022-09-02T19:48:06.118Z,23.60
2022-09-02T19:50:33.464Z,23.60
2022-09-02T19:53:00.841Z,23.60
2022-09-02T19:55:28.963Z,23.50
2022-09-02T19:57:56.149Z,23.50
2022-09-02T20:00:22.990Z,23.50
2022-09-02T20:02:51.261Z,23.50
2022-09-02T20:05:20.734Z,23.40
2022-09-02T20:07:47.793Z,23.30
2022-09-02T20:10:20.395Z,23.30
2022-09-02T20:12:47.487Z,23.10
2022-09-02T20:15:15.016Z,23.20
2022-09-02T20:17:42.858Z,23.30
2022-09-02T20:20:15.354Z,23.20
2022-09-02T20:22:42.185Z,23.20
2022-09-02T20:25:10.489Z,23.20
2022-09-02T20:27:56.100Z,23.10
2022-09-02T20:30:28.472Z,23.10
2022-09-02T20:32:58.621Z,23.10
2022-09-02T20:35:44.258Z,23.10
2022-09-02T20:38:18.865Z,23.10
2022-09-02T20:40:55.140Z,23.00
2022-09-02T20:43:40.847Z,23.10
2022-09-02T20:46:09.155Z,23.10
2022-09-02T20:48:54.920Z,23.10
2022-09-02T20:51:23.576Z,23.10
2022-09-02T20:53:50.650Z,23.10
2022-09-02T20:56:23.565Z,23.10
2022-09-02T20:59:05.008Z,23.10
2022-09-02T21:01:36.681Z,23.10
2022-09-02T21:04:06.647Z,23.20
2022-09-02T21:06:34.637Z,23.20
2022-09-02T21:09:08.092Z,23.20
2022-09-02T21:11:42.533Z,23.20
2022-09-02T21:14:15.316Z,23.00
2022-09-02T21:16:48.997Z,23.00
2022-09-02T21:19:36.441Z,22.80
2022-09-02T21:22:04.475Z,22.70
2022-09-02T21:24:38.284Z,22.70
2022-09-02T21:27:18.148Z,22.60
2022-09-02T21:30:02.817Z,22.60
2022-09-02T21:32:40.084Z,22.50
2022-09-02T21:35:07.146Z,22.50
2022-09-02T21:37:36.738Z,22.50
2022-09-02T21:40:07.576Z,22.40
2022-09-02T21:42:34.511Z,22.50
2022-09-02T21:45:16.575Z,22.60
2022-09-02T21:48:03.541Z,22.60
2022-09-02T21:50:49.027Z,22.70
2022-09-02T21:53:17.682Z,22.70
2022-09-02T21:55:50.561Z,22.70
2022-09-02T21:58:29.462Z,22.70
2022-09-02T22:01:20.523Z,22.70
2022-09-02T22:03:58.670Z,22.70
2022-09-02T22:06:36.308Z,22.70
2022-09-02T22:09:08.849Z,22.60
2022-09-02T22:11:41.113Z,22.70
2022-09-02T22:14:31.005Z,22.60
2022-09-02T22:17:04.327Z,22.50
2022-09-02T22:19:31.891Z,22.40
2022-09-02T22:22:03.477Z,22.40
2022-09-02T22:24:31.118Z,22.40
2022-09-02T22:27:09.322Z,22.50
2022-09-02T22:30:12.074Z,22.40
2022-09-02T22:32:40.414Z,22.50
2022-09-02T22:35:16.379Z,22.40
2022-09-02T22:37:49.247Z,22.20
2022-09-02T22:40:20.093Z,22.30
2022-09-02T22:42:52.199Z,22.40
2022-09-02T22:45:41.801Z,22.40
2022-09-02T22:48:35.487Z,22.40
2022-09-02T22:51:25.067Z,22.50
2022-09-02T22:53:51.944Z,22.50
2022-09-02T22:56:27.323Z,22.50
2022-09-02T22:59:12.968Z,22.40
2022-09-02T23:01:46.794Z,22.30
2022-09-02T23:04:13.771Z,22.30
2022-09-02T23:06:42.363Z,22.20
2022-09-02T23:09:09.707Z,22.20
2022-09-02T23:11:45.776Z,22.20
2022-09-02T23:14:34.913Z,22.20
2022-09-02T23:17:20.386Z,22.20
2022-09-02T23:20:09.720Z,22.20
2022-09-02T23:22:55.279Z,22.30
2022-09-02T23:25:46.171Z,22.20
2022-09-02T23:28:16.783Z,22.20
2022-09-02T23:31:01.089Z,22.40
2022-09-02T23:33:40.819Z,22.40
2022-09-02T23:36:21.571Z,22.40
2022-09-02T23:39:07.416Z,22.40
2022-09-02T23:41:36.386Z,22.30
2022-09-02T23:44:06.299Z,22.20
2022-09-02T23:46:43.818Z,22.10
2022-09-02T23:49:10.634Z,22.00
2022-09-02T23:52:03.916Z,22.00
2022-09-02T23:54:50.603Z,22.00
2022-09-02T23:57:20.869Z,22.00
